Sadiqabad Weather



Sadiqabad's Current Weather

Temprature 22.199o scattered clouds

scattered clouds

Rain: 0 %

Min Temprature22.199o
Max Temprature22.199o
Humidity58
Wind Speed1.86 m/h
Sun Rise06:50:25
Sun Set18:15:37
Current Time: 23-Feb-2019 15:31:49
Lat/Lon: 28.31, 70.13




Sadiqabad's Geo Location




Sadiqabad's Weather Forecast

Time Overall Temp Min Temp Max Temp Humidity Wind Speed Rain
23-Feb-2019 (Sat)
17:00:00 scattered clouds 21.910 21.910 22.199 58 1.86 m/h 0 %
20:00:00 clear sky 17.210 17.210 17.433 58 2.32 m/h 0 %
23:00:00 scattered clouds 14.570 14.570 14.715 65 2.97 m/h 0 %
24-Feb-2019 (Sun)
02:00:00 clear sky 12.810 12.810 12.885 76 1.31 m/h 0 %
05:00:00 clear sky 11.817 11.817 11.817 84 1.26 m/h 0 %
08:00:00 clear sky 13.128 13.128 13.128 80 1.66 m/h 0 %
11:00:00 clear sky 21.024 21.024 21.024 84 2.46 m/h 0 %
14:00:00 few clouds 22.731 22.731 22.731 78 2.52 m/h 0 %
17:00:00 clear sky 22.071 22.071 22.071 60 2.1 m/h 0 %
20:00:00 clear sky 15.943 15.943 15.943 64 0.81 m/h 0 %
23:00:00 clear sky 13.186 13.186 13.186 71 1.36 m/h 0 %
25-Feb-2019 (Mon)
02:00:00 clear sky 12.380 12.380 12.380 71 2.52 m/h 0 %
05:00:00 scattered clouds 11.527 11.527 11.527 67 2.76 m/h 0 %
08:00:00 broken clouds 11.770 11.770 11.770 76 4.02 m/h 0 %
11:00:00 clear sky 16.972 16.972 16.972 90 3.86 m/h 0 %
14:00:00 clear sky 20.148 20.148 20.148 84 3.32 m/h 0 %
17:00:00 clear sky 20.562 20.562 20.562 68 2.06 m/h 0 %
20:00:00 scattered clouds 15.573 15.573 15.573 74 1.51 m/h 0 %
23:00:00 scattered clouds 13.492 13.492 13.492 85 2.31 m/h 0 %
26-Feb-2019 (Tue)
02:00:00 broken clouds 12.701 12.701 12.701 89 1.96 m/h 0 %
05:00:00 broken clouds 12.022 12.022 12.022 92 2.21 m/h 0 %
08:00:00 few clouds 12.332 12.332 12.332 93 4.32 m/h 0 %
11:00:00 clear sky 16.467 16.467 16.467 88 4.57 m/h 0 %
14:00:00 clear sky 18.621 18.621 18.621 85 2.96 m/h 0 %
17:00:00 clear sky 19.139 19.139 19.139 64 2.31 m/h 0 %
20:00:00 clear sky 14.411 14.411 14.411 63 0.97 m/h 0 %
23:00:00 clear sky 11.973 11.973 11.973 76 1.32 m/h 0 %
27-Feb-2019 (Wed)
02:00:00 clear sky 10.731 10.731 10.731 82 1.96 m/h 0 %
05:00:00 clear sky 9.669 9.669 9.669 85 1.45 m/h 0 %
08:00:00 clear sky 10.915 10.915 10.915 80 1.77 m/h 0 %
11:00:00 clear sky 18.195 18.195 18.195 85 2.06 m/h 0 %
14:00:00 clear sky 20.961 20.961 20.961 74 1.15 m/h 0 %
17:00:00 clear sky 20.773 20.773 20.773 53 1.61 m/h 0 %
20:00:00 clear sky 14.667 14.667 14.667 53 1.42 m/h 0 %
23:00:00 few clouds 12.366 12.366 12.366 55 2.52 m/h 0 %
28-Feb-2019 (Thu)
02:00:00 few clouds 11.416 11.416 11.416 60 3.31 m/h 0 %
05:00:00 scattered clouds 10.213 10.213 10.213 68 2.06 m/h 0 %
08:00:00 few clouds 10.865 10.865 10.865 70 1.91 m/h 0 %
11:00:00 scattered clouds 16.722 16.722 16.722 83 3.61 m/h 0 %
14:00:00 broken clouds 18.579 18.579 18.579 75 4.02 m/h 0 %


Sadiqabad's Tourist Spots

Historical Places in Sadiqabad

Famous Cities (60)